sensor_id;sensor_type;location;lat;lon;timestamp;pressure;altitude;pressure_sealevel;temperature
74493;BMP180;62978;51.094;-115.362;2022-09-12T00:01:23;86939.20;;;30.20
74493;BMP180;62978;51.094;-115.362;2022-09-12T00:03:57;86955.80;;;29.94
74493;BMP180;62978;51.094;-115.362;2022-09-12T00:06:34;86955.60;;;29.80
74493;BMP180;62978;51.094;-115.362;2022-09-12T00:09:07;86958.40;;;29.54
74493;BMP180;62978;51.094;-115.362;2022-09-12T00:11:38;86945.00;;;28.80
74493;BMP180;62978;51.094;-115.362;2022-09-12T00:14:08;86962.00;;;28.50
74493;BMP180;62978;51.094;-115.362;2022-09-12T00:16:38;86962.20;;;28.22
74493;BMP180;62978;51.094;-115.362;2022-09-12T00:19:06;86962.00;;;27.88
74493;BMP180;62978;51.094;-115.362;2022-09-12T00:21:36;86962.80;;;27.60
74493;BMP180;62978;51.094;-115.362;2022-09-12T00:24:04;86961.00;;;27.46
74493;BMP180;62978;51.094;-115.362;2022-09-12T00:26:31;86975.40;;;27.10
74493;BMP180;62978;51.094;-115.362;2022-09-12T00:28:59;86967.00;;;26.50
74493;BMP180;62978;51.094;-115.362;2022-09-12T00:31:27;86980.60;;;26.16
74493;BMP180;62978;51.094;-115.362;2022-09-12T00:33:58;86979.00;;;25.76
74493;BMP180;62978;51.094;-115.362;2022-09-12T00:36:30;86981.60;;;25.40
74493;BMP180;62978;51.094;-115.362;2022-09-12T00:38:57;86978.40;;;25.10
74493;BMP180;62978;51.094;-115.362;2022-09-12T00:41:32;86980.00;;;24.82
74493;BMP180;62978;51.094;-115.362;2022-09-12T00:46:47;86983.20;;;24.30
74493;BMP180;62978;51.094;-115.362;2022-09-12T00:49:44;86986.20;;;24.14
74493;BMP180;62978;51.094;-115.362;2022-09-12T00:53:05;86988.80;;;23.90
74493;BMP180;62978;51.094;-115.362;2022-09-12T00:55:26;87005.00;;;23.64
74493;BMP180;62978;51.094;-115.362;2022-09-12T00:58:13;86993.20;;;23.50
74493;BMP180;62978;51.094;-115.362;2022-09-12T01:00:43;86984.20;;;23.38
74493;BMP180;62978;51.094;-115.362;2022-09-12T01:03:18;86986.40;;;23.20
74493;BMP180;62978;51.094;-115.362;2022-09-12T01:08:27;86998.40;;;22.90
74493;BMP180;62978;51.094;-115.362;2022-09-12T01:10:56;87003.00;;;22.70
74493;BMP180;62978;51.094;-115.362;2022-09-12T01:13:23;87004.60;;;22.40
74493;BMP180;62978;51.094;-115.362;2022-09-12T01:15:50;87004.60;;;22.10
74493;BMP180;62978;51.094;-115.362;2022-09-12T01:18:48;86999.00;;;21.94
74493;BMP180;62978;51.094;-115.362;2022-09-12T01:42:04;87017.40;;;21.02
74493;BMP180;62978;51.094;-115.362;2022-09-12T01:46:10;87023.40;;;20.80
74493;BMP180;62978;51.094;-115.362;2022-09-12T01:48:39;87021.60;;;20.50
74493;BMP180;62978;51.094;-115.362;2022-09-12T01:51:27;87027.80;;;20.40
74493;BMP180;62978;51.094;-115.362;2022-09-12T01:54:12;87024.60;;;20.78
74493;BMP180;62978;51.094;-115.362;2022-09-12T01:56:45;87031.40;;;20.90
74493;BMP180;62978;51.094;-115.362;2022-09-12T01:59:32;87028.60;;;20.80
74493;BMP180;62978;51.094;-115.362;2022-09-12T02:02:32;87019.40;;;20.70
74493;BMP180;62978;51.094;-115.362;2022-09-12T02:05:07;87028.80;;;20.90
74493;BMP180;62978;51.094;-115.362;2022-09-12T02:08:01;87026.20;;;21.12
74493;BMP180;62978;51.094;-115.362;2022-09-12T02:10:40;87029.00;;;21.30
74493;BMP180;62978;51.094;-115.362;2022-09-12T02:13:18;87040.40;;;21.30
74493;BMP180;62978;51.094;-115.362;2022-09-12T02:15:58;87041.00;;;21.20
74493;BMP180;62978;51.094;-115.362;2022-09-12T02:18:32;87040.80;;;21.00
74493;BMP180;62978;51.094;-115.362;2022-09-12T02:21:04;87049.00;;;20.90
74493;BMP180;62978;51.094;-115.362;2022-09-12T02:23:43;87039.80;;;20.98
74493;BMP180;62978;51.094;-115.362;2022-09-12T02:26:22;87042.20;;;21.04
74493;BMP180;62978;51.094;-115.362;2022-09-12T02:28:51;87042.40;;;21.10
74493;BMP180;62978;51.094;-115.362;2022-09-12T02:39:55;87057.80;;;21.20
74493;BMP180;62978;51.094;-115.362;2022-09-12T02:42:24;87057.60;;;21.30
74493;BMP180;62978;51.094;-115.362;2022-09-12T02:44:55;87066.40;;;21.30
74493;BMP180;62978;51.094;-115.362;2022-09-12T02:47:33;87068.60;;;21.26
74493;BMP180;62978;51.094;-115.362;2022-09-12T02:50:03;87064.20;;;21.20
74493;BMP180;62978;51.094;-115.362;2022-09-12T02:52:31;87066.80;;;21.10
74493;BMP180;62978;51.094;-115.362;2022-09-12T02:54:59;87065.80;;;21.10
74493;BMP180;62978;51.094;-115.362;2022-09-12T02:57:27;87054.60;;;21.00
74493;BMP180;62978;51.094;-115.362;2022-09-12T03:00:00;87063.00;;;21.00
74493;BMP180;62978;51.094;-115.362;2022-09-12T03:05:36;87069.20;;;21.00
74493;BMP180;62978;51.094;-115.362;2022-09-12T03:14:50;87068.20;;;20.80
74493;BMP180;62978;51.094;-115.362;2022-09-12T03:24:20;87067.80;;;20.70
74493;BMP180;62978;51.094;-115.362;2022-09-12T03:27:26;87062.80;;;20.60
74493;BMP180;62978;51.094;-115.362;2022-09-12T03:29:56;87059.40;;;20.40
74493;BMP180;62978;51.094;-115.362;2022-09-12T03:32:44;87061.80;;;20.28
74493;BMP180;62978;51.094;-115.362;2022-09-12T03:35:23;87064.20;;;20.10
74493;BMP180;62978;51.094;-115.362;2022-09-12T03:37:52;87066.80;;;19.90
74493;BMP180;62978;51.094;-115.362;2022-09-12T03:40:20;87074.80;;;19.70
74493;BMP180;62978;51.094;-115.362;2022-09-12T03:42:48;87078.00;;;19.50
74493;BMP180;62978;51.094;-115.362;2022-09-12T03:45:16;87084.20;;;19.40
74493;BMP180;62978;51.094;-115.362;2022-09-12T03:47:43;87085.80;;;19.20
74493;BMP180;62978;51.094;-115.362;2022-09-12T03:50:11;87090.40;;;19.10
74493;BMP180;62978;51.094;-115.362;2022-09-12T03:52:38;87096.20;;;19.10
74493;BMP180;62978;51.094;-115.362;2022-09-12T03:55:07;87102.60;;;19.00
74493;BMP180;62978;51.094;-115.362;2022-09-12T03:57:35;87097.40;;;18.90
74493;BMP180;62978;51.094;-115.362;2022-09-12T04:00:06;87096.00;;;18.74
74493;BMP180;62978;51.094;-115.362;2022-09-12T04:02:35;87105.60;;;18.70
74493;BMP180;62978;51.094;-115.362;2022-09-12T04:05:03;87107.60;;;18.60
74493;BMP180;62978;51.094;-115.362;2022-09-12T04:07:31;87117.20;;;18.60
74493;BMP180;62978;51.094;-115.362;2022-09-12T04:09:59;87119.20;;;18.70
74493;BMP180;62978;51.094;-115.362;2022-09-12T04:12:29;87115.80;;;18.80
74493;BMP180;62978;51.094;-115.362;2022-09-12T04:15:00;87110.00;;;18.80
74493;BMP180;62978;51.094;-115.362;2022-09-12T04:17:29;87108.80;;;18.80
74493;BMP180;62978;51.094;-115.362;2022-09-12T04:19:57;87109.40;;;18.74
74493;BMP180;62978;51.094;-115.362;2022-09-12T04:22:24;87116.60;;;18.70
74493;BMP180;62978;51.094;-115.362;2022-09-12T04:24:52;87118.80;;;18.60
74493;BMP180;62978;51.094;-115.362;2022-09-12T04:27:20;87116.20;;;18.60
74493;BMP180;62978;51.094;-115.362;2022-09-12T04:29:47;87114.60;;;18.54
74493;BMP180;62978;51.094;-115.362;2022-09-12T04:32:16;87121.40;;;18.50
74493;BMP180;62978;51.094;-115.362;2022-09-12T04:34:46;87122.20;;;18.50
74493;BMP180;62978;51.094;-115.362;2022-09-12T04:37:16;87123.60;;;18.40
74493;BMP180;62978;51.094;-115.362;2022-09-12T04:39:44;87121.00;;;18.40
74493;BMP180;62978;51.094;-115.362;2022-09-12T04:42:15;87117.40;;;18.50
74493;BMP180;62978;51.094;-115.362;2022-09-12T04:44:45;87111.80;;;18.44
74493;BMP180;62978;51.094;-115.362;2022-09-12T04:47:13;87119.40;;;18.40
74493;BMP180;62978;51.094;-115.362;2022-09-12T04:49:41;87124.20;;;18.30
74493;BMP180;62978;51.094;-115.362;2022-09-12T04:52:10;87126.60;;;18.30
74493;BMP180;62978;51.094;-115.362;2022-09-12T04:54:39;87127.00;;;18.20
74493;BMP180;62978;51.094;-115.362;2022-09-12T04:57:07;87130.60;;;18.20
74493;BMP180;62978;51.094;-115.362;2022-09-12T04:59:37;87136.00;;;18.20
74493;BMP180;62978;51.094;-115.362;2022-09-12T05:02:05;87145.00;;;18.10
74493;BMP180;62978;51.094;-115.362;2022-09-12T05:04:35;87144.60;;;18.10
74493;BMP180;62978;51.094;-115.362;2022-09-12T05:07:03;87142.20;;;18.10
74493;BMP180;62978;51.094;-115.362;2022-09-12T05:09:33;87141.40;;;18.00
74493;BMP180;62978;51.094;-115.362;2022-09-12T05:12:01;87143.00;;;17.90
74493;BMP180;62978;51.094;-115.362;2022-09-12T05:14:33;87142.20;;;17.80
74493;BMP180;62978;51.094;-115.362;2022-09-12T05:17:03;87142.20;;;17.70
74493;BMP180;62978;51.094;-115.362;2022-09-12T05:19:32;87142.40;;;17.70
74493;BMP180;62978;51.094;-115.362;2022-09-12T05:22:01;87152.40;;;17.50
74493;BMP180;62978;51.094;-115.362;2022-09-12T05:24:32;87158.00;;;17.40
74493;BMP180;62978;51.094;-115.362;2022-09-12T05:27:02;87157.00;;;17.30
74493;BMP180;62978;51.094;-115.362;2022-09-12T05:29:34;87160.80;;;17.40
74493;BMP180;62978;51.094;-115.362;2022-09-12T05:32:04;87164.40;;;17.40
74493;BMP180;62978;51.094;-115.362;2022-09-12T05:34:33;87164.60;;;17.36
74493;BMP180;62978;51.094;-115.362;2022-09-12T05:37:00;87168.80;;;17.20
74493;BMP180;62978;51.094;-115.362;2022-09-12T05:39:28;87170.80;;;17.20
74493;BMP180;62978;51.094;-115.362;2022-09-12T05:41:56;87174.00;;;17.10
74493;BMP180;62978;51.094;-115.362;2022-09-12T05:44:23;87177.00;;;16.92
74493;BMP180;62978;51.094;-115.362;2022-09-12T05:46:52;87180.00;;;16.90
74493;BMP180;62978;51.094;-115.362;2022-09-12T05:49:21;87182.00;;;16.80
74493;BMP180;62978;51.094;-115.362;2022-09-12T05:51:49;87182.00;;;16.88
74493;BMP180;62978;51.094;-115.362;2022-09-12T05:54:18;87185.40;;;16.78
74493;BMP180;62978;51.094;-115.362;2022-09-12T05:56:47;87183.40;;;16.54
74493;BMP180;62978;51.094;-115.362;2022-09-12T05:59:20;87184.80;;;16.50
74493;BMP180;62978;51.094;-115.362;2022-09-12T06:01:50;87188.00;;;16.40
74493;BMP180;62978;51.094;-115.362;2022-09-12T06:04:18;87191.80;;;16.30
74493;BMP180;62978;51.094;-115.362;2022-09-12T06:06:47;87197.20;;;16.10
74493;BMP180;62978;51.094;-115.362;2022-09-12T06:09:17;87199.00;;;15.90
74493;BMP180;62978;51.094;-115.362;2022-09-12T06:11:45;87199.00;;;15.80
74493;BMP180;62978;51.094;-115.362;2022-09-12T06:14:16;87200.20;;;15.60
74493;BMP180;62978;51.094;-115.362;2022-09-12T06:16:46;87199.40;;;15.50
74493;BMP180;62978;51.094;-115.362;2022-09-12T06:19:21;87203.20;;;15.40
74493;BMP180;62978;51.094;-115.362;2022-09-12T06:21:50;87206.80;;;15.30
74493;BMP180;62978;51.094;-115.362;2022-09-12T06:24:23;87202.40;;;15.10
74493;BMP180;62978;51.094;-115.362;2022-09-12T06:26:53;87208.40;;;15.00
74493;BMP180;62978;51.094;-115.362;2022-09-12T06:29:22;87207.40;;;14.90
74493;BMP180;62978;51.094;-115.362;2022-09-12T06:31:53;87215.80;;;14.90
74493;BMP180;62978;51.094;-115.362;2022-09-12T06:34:21;87220.40;;;14.80
74493;BMP180;62978;51.094;-115.362;2022-09-12T06:36:50;87216.60;;;14.70
74493;BMP180;62978;51.094;-115.362;2022-09-12T06:39:21;87222.40;;;14.60
74493;BMP180;62978;51.094;-115.362;2022-09-12T06:41:52;87220.60;;;14.50
74493;BMP180;62978;51.094;-115.362;2022-09-12T06:44:21;87221.60;;;14.40
74493;BMP180;62978;51.094;-115.362;2022-09-12T06:46:49;87221.60;;;14.30
74493;BMP180;62978;51.094;-115.362;2022-09-12T06:49:20;87220.60;;;14.20
74493;BMP180;62978;51.094;-115.362;2022-09-12T06:51:49;87222.40;;;14.10
74493;BMP180;62978;51.094;-115.362;2022-09-12T06:54:18;87226.00;;;13.90
74493;BMP180;62978;51.094;-115.362;2022-09-12T06:56:46;87228.60;;;13.80
74493;BMP180;62978;51.094;-115.362;2022-09-12T06:59:14;87230.20;;;13.70
74493;BMP180;62978;51.094;-115.362;2022-09-12T07:01:43;87236.00;;;13.60
74493;BMP180;62978;51.094;-115.362;2022-09-12T07:04:13;87233.60;;;13.50
74493;BMP180;62978;51.094;-115.362;2022-09-12T07:06:42;87240.40;;;13.40
74493;BMP180;62978;51.094;-115.362;2022-09-12T07:09:14;87235.00;;;13.40
74493;BMP180;62978;51.094;-115.362;2022-09-12T07:11:46;87236.00;;;13.30
74493;BMP180;62978;51.094;-115.362;2022-09-12T07:14:16;87239.60;;;13.20
74493;BMP180;62978;51.094;-115.362;2022-09-12T07:16:47;87239.60;;;13.10
74493;BMP180;62978;51.094;-115.362;2022-09-12T07:19:16;87236.20;;;13.06
74493;BMP180;62978;51.094;-115.362;2022-09-12T07:21:44;87238.20;;;12.96
74493;BMP180;62978;51.094;-115.362;2022-09-12T07:24:13;87245.00;;;12.90
74493;BMP180;62978;51.094;-115.362;2022-09-12T07:26:43;87242.80;;;12.80
74493;BMP180;62978;51.094;-115.362;2022-09-12T07:29:17;87243.20;;;12.70
74493;BMP180;62978;51.094;-115.362;2022-09-12T07:31:47;87243.60;;;12.62
74493;BMP180;62978;51.094;-115.362;2022-09-12T07:34:16;87245.60;;;12.60
74493;BMP180;62978;51.094;-115.362;2022-09-12T07:36:44;87244.80;;;12.50
74493;BMP180;62978;51.094;-115.362;2022-09-12T07:39:12;87242.80;;;12.40
74493;BMP180;62978;51.094;-115.362;2022-09-12T07:41:42;87240.20;;;12.30
74493;BMP180;62978;51.094;-115.362;2022-09-12T07:44:10;87245.20;;;12.30
74493;BMP180;62978;51.094;-115.362;2022-09-12T07:46:39;87244.60;;;12.20
74493;BMP180;62978;51.094;-115.362;2022-09-12T07:49:11;87248.40;;;12.10
74493;BMP180;62978;51.094;-115.362;2022-09-12T07:51:42;87253.20;;;12.10
74493;BMP180;62978;51.094;-115.362;2022-09-12T07:54:10;87252.20;;;12.00
74493;BMP180;62978;51.094;-115.362;2022-09-12T07:56:38;87253.20;;;11.90
74493;BMP180;62978;51.094;-115.362;2022-09-12T07:59:08;87253.20;;;11.80
74493;BMP180;62978;51.094;-115.362;2022-09-12T08:01:36;87254.00;;;11.80
74493;BMP180;62978;51.094;-115.362;2022-09-12T08:04:08;87254.00;;;11.70
74493;BMP180;62978;51.094;-115.362;2022-09-12T08:06:36;87260.20;;;11.60
74493;BMP180;62978;51.094;-115.362;2022-09-12T08:09:08;87258.40;;;11.60
74493;BMP180;62978;51.094;-115.362;2022-09-12T08:11:38;87263.60;;;11.50
74493;BMP180;62978;51.094;-115.362;2022-09-12T08:14:07;87267.40;;;11.50
74493;BMP180;62978;51.094;-115.362;2022-09-12T08:16:35;87270.60;;;11.40
74493;BMP180;62978;51.094;-115.362;2022-09-12T08:19:05;87281.40;;;11.30
74493;BMP180;62978;51.094;-115.362;2022-09-12T08:21:34;87279.40;;;11.22
74493;BMP180;62978;51.094;-115.362;2022-09-12T08:24:06;87279.80;;;11.20
74493;BMP180;62978;51.094;-115.362;2022-09-12T08:26:35;87284.40;;;11.10
74493;BMP180;62978;51.094;-115.362;2022-09-12T08:29:03;87282.80;;;11.10
74493;BMP180;62978;51.094;-115.362;2022-09-12T08:31:31;87286.80;;;11.00
74493;BMP180;62978;51.094;-115.362;2022-09-12T08:34:06;87286.40;;;11.00
74493;BMP180;62978;51.094;-115.362;2022-09-12T08:36:34;87287.20;;;10.90
74493;BMP180;62978;51.094;-115.362;2022-09-12T08:39:06;87291.00;;;10.90
74493;BMP180;62978;51.094;-115.362;2022-09-12T08:41:47;87294.60;;;10.80
74493;BMP180;62978;51.094;-115.362;2022-09-12T08:47:37;87295.80;;;10.70
74493;BMP180;62978;51.094;-115.362;2022-09-12T08:50:11;87301.00;;;10.60
74493;BMP180;62978;51.094;-115.362;2022-09-12T08:53:02;87306.60;;;10.50
74493;BMP180;62978;51.094;-115.362;2022-09-12T08:55:49;87313.60;;;10.50
74493;BMP180;62978;51.094;-115.362;2022-09-12T08:58:22;87310.60;;;10.40
74493;BMP180;62978;51.094;-115.362;2022-09-12T09:04:23;87306.20;;;10.30
74493;BMP180;62978;51.094;-115.362;2022-09-12T09:07:17;87307.40;;;10.20
74493;BMP180;62978;51.094;-115.362;2022-09-12T09:10:27;87312.20;;;10.10
74493;BMP180;62978;51.094;-115.362;2022-09-12T09:13:28;87311.60;;;10.00
74493;BMP180;62978;51.094;-115.362;2022-09-12T09:16:32;87310.20;;;9.90
74493;BMP180;62978;51.094;-115.362;2022-09-12T09:19:33;87311.40;;;9.80
74493;BMP180;62978;51.094;-115.362;2022-09-12T09:25:08;87312.60;;;9.70
74493;BMP180;62978;51.094;-115.362;2022-09-12T09:28:06;87318.40;;;9.70
74493;BMP180;62978;51.094;-115.362;2022-09-12T09:30:46;87326.60;;;9.60
74493;BMP180;62978;51.094;-115.362;2022-09-12T09:33:26;87329.60;;;9.52
74493;BMP180;62978;51.094;-115.362;2022-09-12T09:39:13;87331.40;;;9.40
74493;BMP180;62978;51.094;-115.362;2022-09-12T09:44:45;87338.20;;;9.30
74493;BMP180;62978;51.094;-115.362;2022-09-12T09:47:17;87342.60;;;9.30
74493;BMP180;62978;51.094;-115.362;2022-09-12T09:49:46;87341.00;;;9.30
74493;BMP180;62978;51.094;-115.362;2022-09-12T09:52:23;87345.00;;;9.20
74493;BMP180;62978;51.094;-115.362;2022-09-12T09:55:02;87343.00;;;9.20
74493;BMP180;62978;51.094;-115.362;2022-09-12T09:57:39;87347.60;;;9.20
74493;BMP180;62978;51.094;-115.362;2022-09-12T10:00:31;87347.20;;;9.20
74493;BMP180;62978;51.094;-115.362;2022-09-12T10:06:00;87355.80;;;9.20
74493;BMP180;62978;51.094;-115.362;2022-09-12T10:08:32;87367.80;;;9.20
74493;BMP180;62978;51.094;-115.362;2022-09-12T10:11:27;87370.80;;;9.20
74493;BMP180;62978;51.094;-115.362;2022-09-12T10:13:58;87376.80;;;9.16
74493;BMP180;62978;51.094;-115.362;2022-09-12T10:16:33;87378.60;;;9.10
74493;BMP180;62978;51.094;-115.362;2022-09-12T10:19:39;87385.60;;;9.00
74493;BMP180;62978;51.094;-115.362;2022-09-12T10:22:16;87390.40;;;8.94
74493;BMP180;62978;51.094;-115.362;2022-09-12T10:24:58;87389.20;;;8.90
74493;BMP180;62978;51.094;-115.362;2022-09-12T10:27:35;87401.00;;;8.90
74493;BMP180;62978;51.094;-115.362;2022-09-12T10:30:16;87397.00;;;8.80
74493;BMP180;62978;51.094;-115.362;2022-09-12T10:32:48;87403.20;;;8.74
74493;BMP180;62978;51.094;-115.362;2022-09-12T10:35:41;87405.20;;;8.70
74493;BMP180;62978;51.094;-115.362;2022-09-12T10:38:24;87408.80;;;8.60
74493;BMP180;62978;51.094;-115.362;2022-09-12T10:41:10;87408.60;;;8.60
74493;BMP180;62978;51.094;-115.362;2022-09-12T10:43:39;87412.60;;;8.50
74493;BMP180;62978;51.094;-115.362;2022-09-12T10:46:27;87414.40;;;8.50
74493;BMP180;62978;51.094;-115.362;2022-09-12T10:49:24;87422.40;;;8.40
74493;BMP180;62978;51.094;-115.362;2022-09-12T10:51:55;87424.00;;;8.30
74493;BMP180;62978;51.094;-115.362;2022-09-12T10:54:27;87426.20;;;8.30
74493;BMP180;62978;51.094;-115.362;2022-09-12T10:57:34;87430.20;;;8.28
74493;BMP180;62978;51.094;-115.362;2022-09-12T11:00:14;87432.20;;;8.20
74493;BMP180;62978;51.094;-115.362;2022-09-12T11:05:56;87435.60;;;8.22
74493;BMP180;62978;51.094;-115.362;2022-09-12T11:14:35;87445.40;;;8.30
74493;BMP180;62978;51.094;-115.362;2022-09-12T11:23:46;87453.00;;;8.20
74493;BMP180;62978;51.094;-115.362;2022-09-12T11:29:25;87461.00;;;8.20
74493;BMP180;62978;51.094;-115.362;2022-09-12T11:33:13;87462.40;;;8.10
74493;BMP180;62978;51.094;-115.362;2022-09-12T11:35:34;87473.40;;;8.02
74493;BMP180;62978;51.094;-115.362;2022-09-12T11:41:31;87473.60;;;8.00
74493;BMP180;62978;51.094;-115.362;2022-09-12T11:44:22;87470.40;;;7.90
74493;BMP180;62978;51.094;-115.362;2022-09-12T11:46:52;87458.00;;;7.90
74493;BMP180;62978;51.094;-115.362;2022-09-12T11:49:44;87460.40;;;7.90
74493;BMP180;62978;51.094;-115.362;2022-09-12T11:52:21;87456.60;;;7.90
74493;BMP180;62978;51.094;-115.362;2022-09-12T11:57:50;87460.00;;;8.00
74493;BMP180;62978;51.094;-115.362;2022-09-12T12:00:22;87458.00;;;7.90
74493;BMP180;62978;51.094;-115.362;2022-09-12T12:03:15;87458.00;;;7.90
74493;BMP180;62978;51.094;-115.362;2022-09-12T12:06:10;87454.80;;;7.90
74493;BMP180;62978;51.094;-115.362;2022-09-12T12:08:44;87461.40;;;7.80
74493;BMP180;62978;51.094;-115.362;2022-09-12T12:12:10;87456.40;;;7.70
74493;BMP180;62978;51.094;-115.362;2022-09-12T12:14:43;87455.60;;;7.70
74493;BMP180;62978;51.094;-115.362;2022-09-12T12:17:23;87451.00;;;7.60
74493;BMP180;62978;51.094;-115.362;2022-09-12T12:20:05;87456.60;;;7.50
74493;BMP180;62978;51.094;-115.362;2022-09-12T12:22:35;87462.80;;;7.50
74493;BMP180;62978;51.094;-115.362;2022-09-12T12:25:23;87462.20;;;7.40
74493;BMP180;62978;51.094;-115.362;2022-09-12T12:27:56;87466.80;;;7.40
74493;BMP180;62978;51.094;-115.362;2022-09-12T12:35:44;87450.60;;;7.20
74493;BMP180;62978;51.094;-115.362;2022-09-12T12:38:35;87449.00;;;7.20
74493;BMP180;62978;51.094;-115.362;2022-09-12T12:43:55;87452.20;;;7.20
74493;BMP180;62978;51.094;-115.362;2022-09-12T12:46:28;87451.40;;;7.20
74493;BMP180;62978;51.094;-115.362;2022-09-12T12:49:17;87457.20;;;7.10
74493;BMP180;62978;51.094;-115.362;2022-09-12T12:51:56;87454.80;;;7.10
74493;BMP180;62978;51.094;-115.362;2022-09-12T12:54:33;87456.40;;;7.06
74493;BMP180;62978;51.094;-115.362;2022-09-12T13:00:05;87461.00;;;6.90
74493;BMP180;62978;51.094;-115.362;2022-09-12T13:05:50;87461.80;;;6.80
74493;BMP180;62978;51.094;-115.362;2022-09-12T13:08:27;87463.60;;;6.72
74493;BMP180;62978;51.094;-115.362;2022-09-12T13:11:26;87459.40;;;6.70
74493;BMP180;62978;51.094;-115.362;2022-09-12T13:14:03;87453.40;;;6.60
74493;BMP180;62978;51.094;-115.362;2022-09-12T13:16:55;87459.60;;;6.60
74493;BMP180;62978;51.094;-115.362;2022-09-12T13:19:37;87461.80;;;6.60
74493;BMP180;62978;51.094;-115.362;2022-09-12T13:22:08;87464.80;;;6.60
74493;BMP180;62978;51.094;-115.362;2022-09-12T13:24:47;87465.60;;;6.60
74493;BMP180;62978;51.094;-115.362;2022-09-12T13:27:25;87465.20;;;6.60
74493;BMP180;62978;51.094;-115.362;2022-09-12T13:30:14;87473.00;;;6.60
74493;BMP180;62978;51.094;-115.362;2022-09-12T13:32:43;87476.20;;;6.64
74493;BMP180;62978;51.094;-115.362;2022-09-12T13:35:35;87470.00;;;6.60
74493;BMP180;62978;51.094;-115.362;2022-09-12T13:44:01;87474.60;;;6.60
74493;BMP180;62978;51.094;-115.362;2022-09-12T13:46:34;87475.60;;;6.60
74493;BMP180;62978;51.094;-115.362;2022-09-12T13:49:33;87478.40;;;6.60
74493;BMP180;62978;51.094;-115.362;2022-09-12T13:52:19;87480.00;;;6.60
74493;BMP180;62978;51.094;-115.362;2022-09-12T13:54:52;87473.20;;;6.60
74493;BMP180;62978;51.094;-115.362;2022-09-12T13:57:36;87474.60;;;6.70
74493;BMP180;62978;51.094;-115.362;2022-09-12T14:00:17;87480.00;;;6.70
74493;BMP180;62978;51.094;-115.362;2022-09-12T14:02:48;87477.20;;;6.80
74493;BMP180;62978;51.094;-115.362;2022-09-12T14:05:25;87473.40;;;6.90
74493;BMP180;62978;51.094;-115.362;2022-09-12T14:08:00;87473.00;;;6.92
74493;BMP180;62978;51.094;-115.362;2022-09-12T14:10:37;87475.20;;;7.00
74493;BMP180;62978;51.094;-115.362;2022-09-12T14:13:24;87471.80;;;7.00
74493;BMP180;62978;51.094;-115.362;2022-09-12T14:15:54;87472.60;;;7.10
74493;BMP180;62978;51.094;-115.362;2022-09-12T14:18:29;87468.60;;;7.10
74493;BMP180;62978;51.094;-115.362;2022-09-12T14:21:23;87476.40;;;7.20
74493;BMP180;62978;51.094;-115.362;2022-09-12T14:23:54;87471.20;;;7.20
74493;BMP180;62978;51.094;-115.362;2022-09-12T14:26:21;87470.60;;;7.26
74493;BMP180;62978;51.094;-115.362;2022-09-12T14:28:49;87473.00;;;7.40
74493;BMP180;62978;51.094;-115.362;2022-09-12T14:31:23;87472.80;;;7.50
74493;BMP180;62978;51.094;-115.362;2022-09-12T14:34:17;87469.20;;;7.60
74493;BMP180;62978;51.094;-115.362;2022-09-12T14:36:53;87466.00;;;7.70
74493;BMP180;62978;51.094;-115.362;2022-09-12T14:39:38;87468.00;;;7.80
74493;BMP180;62978;51.094;-115.362;2022-09-12T14:42:17;87470.20;;;7.80
74493;BMP180;62978;51.094;-115.362;2022-09-12T14:44:59;87466.20;;;7.88
74493;BMP180;62978;51.094;-115.362;2022-09-12T14:47:34;87472.40;;;7.96
74493;BMP180;62978;51.094;-115.362;2022-09-12T14:50:03;87477.60;;;8.00
74493;BMP180;62978;51.094;-115.362;2022-09-12T14:52:34;87468.80;;;8.00
74493;BMP180;62978;51.094;-115.362;2022-09-12T14:55:18;87472.60;;;8.02
74493;BMP180;62978;51.094;-115.362;2022-09-12T14:57:46;87474.80;;;8.10
74493;BMP180;62978;51.094;-115.362;2022-09-12T15:00:19;87472.40;;;8.10
74493;BMP180;62978;51.094;-115.362;2022-09-12T15:02:52;87474.40;;;8.18
74493;BMP180;62978;51.094;-115.362;2022-09-12T15:05:25;87476.00;;;8.20
74493;BMP180;62978;51.094;-115.362;2022-09-12T15:07:56;87477.40;;;8.20
74493;BMP180;62978;51.094;-115.362;2022-09-12T15:10:34;87477.20;;;8.20
74493;BMP180;62978;51.094;-115.362;2022-09-12T15:15:37;87480.00;;;8.30
74493;BMP180;62978;51.094;-115.362;2022-09-12T15:18:05;87482.60;;;8.30
74493;BMP180;62978;51.094;-115.362;2022-09-12T15:20:35;87479.20;;;8.40
74493;BMP180;62978;51.094;-115.362;2022-09-12T15:23:04;87480.60;;;8.40
74493;BMP180;62978;51.094;-115.362;2022-09-12T15:25:32;87482.80;;;8.42
74493;BMP180;62978;51.094;-115.362;2022-09-12T15:28:00;87479.40;;;8.50
74493;BMP180;62978;51.094;-115.362;2022-09-12T15:30:27;87487.60;;;8.60
74493;BMP180;62978;51.094;-115.362;2022-09-12T15:32:54;87480.40;;;8.68
74493;BMP180;62978;51.094;-115.362;2022-09-12T15:35:31;87479.80;;;8.80
74493;BMP180;62978;51.094;-115.362;2022-09-12T15:37:59;87473.40;;;8.90
74493;BMP180;62978;51.094;-115.362;2022-09-12T15:40:26;87464.40;;;9.10
74493;BMP180;62978;51.094;-115.362;2022-09-12T15:42:53;87467.80;;;9.20
74493;BMP180;62978;51.094;-115.362;2022-09-12T15:45:32;87471.80;;;9.30
74493;BMP180;62978;51.094;-115.362;2022-09-12T15:48:00;87469.20;;;9.40
74493;BMP180;62978;51.094;-115.362;2022-09-12T15:50:29;87469.60;;;9.50
74493;BMP180;62978;51.094;-115.362;2022-09-12T15:52:57;87466.20;;;9.60
74493;BMP180;62978;51.094;-115.362;2022-09-12T15:55:29;87466.60;;;9.64
74493;BMP180;62978;51.094;-115.362;2022-09-12T15:57:58;87465.60;;;9.70
74493;BMP180;62978;51.094;-115.362;2022-09-12T16:00:26;87461.20;;;9.70
74493;BMP180;62978;51.094;-115.362;2022-09-12T16:02:53;87456.40;;;9.70
74493;BMP180;62978;51.094;-115.362;2022-09-12T16:05:24;87460.20;;;9.70
74493;BMP180;62978;51.094;-115.362;2022-09-12T16:07:53;87457.60;;;9.74
74493;BMP180;62978;51.094;-115.362;2022-09-12T16:10:26;87455.00;;;9.80
74493;BMP180;62978;51.094;-115.362;2022-09-12T16:12:55;87458.20;;;9.80
74493;BMP180;62978;51.094;-115.362;2022-09-12T16:15:24;87457.20;;;9.90
74493;BMP180;62978;51.094;-115.362;2022-09-12T16:17:52;87452.60;;;10.00